Time;durP1;ratioP1;P1;durP2;ratioP2;P2;SDS_P1;SDS_P2;PMS_P1;PMS_P2;Temp;Humidity;BMP_temperature;BMP_pressure;BME280_temperature;BME280_humidity;BME280_pressure;Samples;Min_cycle;Max_cycle;Signal;HPM_P1;HPM_P2
2022/04/02 00:01:58;;;;;;;4.70;2.13;;;;;;;16.02;38.01;102267.66;5051285;28;20104;-79
2022/04/02 00:04:24;;;;;;;4.53;2.58;;;;;;;16.05;37.88;102267.84;5051242;28;20466;-78
2022/04/02 00:06:49;;;;;;;3.63;2.00;;;;;;;16.13;37.60;102268.25;5051210;28;20043;-78
2022/04/02 00:09:15;;;;;;;2.42;1.90;;;;;;;15.97;38.08;102257.59;5051268;28;20032;-79
2022/04/02 00:11:40;;;;;;;4.50;2.33;;;;;;;16.13;37.65;102258.03;5051134;28;20064;-79
2022/04/02 00:14:06;;;;;;;3.72;2.10;;;;;;;16.05;38.10;102254.06;5050968;28;20032;-86
2022/04/02 00:16:31;;;;;;;4.78;2.38;;;;;;;16.17;37.70;102267.31;5051212;28;20120;-84
2022/04/02 00:18:57;;;;;;;2.97;1.90;;;;;;;16.18;37.77;102270.88;5051186;28;20142;-79
2022/04/02 00:21:22;;;;;;;5.43;2.33;;;;;;;16.20;37.70;102277.69;5050961;28;20089;-86
2022/04/02 00:23:48;;;;;;;4.50;2.10;;;;;;;16.13;37.75;102274.56;5050848;28;20097;-79
2022/04/02 00:26:17;;;;;;;4.05;2.50;;;;;;;16.16;37.65;102273.94;5050853;28;20421;-78
2022/04/02 00:28:44;;;;;;;4.35;1.95;;;;;;;16.11;37.80;102278.78;5050858;28;20424;-80
2022/04/02 00:31:12;;;;;;;4.15;2.00;;;;;;;16.11;37.97;102279.59;5050844;28;20082;-78
2022/04/02 00:33:38;;;;;;;3.15;2.00;;;;;;;16.12;37.73;102277.66;5050741;28;20120;-78
2022/04/02 00:36:04;;;;;;;4.85;2.22;;;;;;;16.09;37.81;102268.84;5050726;28;20028;-79
2022/04/02 00:38:30;;;;;;;3.88;2.50;;;;;;;16.06;37.64;102275.00;5050685;28;20036;-79
2022/04/02 00:40:56;;;;;;;3.35;1.80;;;;;;;15.98;37.90;102275.75;5050723;28;20025;-78
2022/04/02 00:43:36;;;;;;;4.38;2.08;;;;;;;15.99;37.83;102266.34;5050629;28;20045;-84
2022/04/02 00:46:09;;;;;;;3.72;1.77;;;;;;;15.96;37.82;102269.75;5050604;28;20027;-79
2022/04/02 00:48:35;;;;;;;2.78;1.95;;;;;;;15.96;38.13;102260.66;5050676;28;20029;-79
2022/04/02 00:51:04;;;;;;;3.35;2.28;;;;;;;16.01;37.94;102269.59;5050364;28;20029;-79
2022/04/02 00:53:32;;;;;;;4.97;2.50;;;;;;;15.98;37.88;102269.44;5050399;28;20422;-79
2022/04/02 00:56:01;;;;;;;2.88;1.88;;;;;;;15.99;37.74;102266.34;5050553;28;20036;-78
2022/04/02 00:58:27;;;;;;;2.70;1.90;;;;;;;15.98;37.98;102264.72;5050429;28;20495;-79
2022/04/02 01:00:53;;;;;;;2.92;2.00;;;;;;;15.99;37.86;102266.34;5050145;28;20033;-78
2022/04/02 01:03:20;;;;;;;3.70;2.30;;;;;;;16.02;37.72;102264.91;5050319;28;20675;-78
2022/04/02 01:05:47;;;;;;;5.97;2.10;;;;;;;16.03;37.84;102263.78;5050252;28;20059;-80
2022/04/02 01:08:12;;;;;;;3.70;1.90;;;;;;;16.01;38.18;102261.31;5050250;28;20028;-79
2022/04/02 01:10:39;;;;;;;3.38;2.28;;;;;;;16.00;38.03;102265.22;5050134;28;20021;-79
2022/04/02 01:13:05;;;;;;;3.03;2.15;;;;;;;16.02;37.91;102260.22;5050124;28;20383;-78
2022/04/02 01:15:31;;;;;;;2.42;2.00;;;;;;;16.02;37.94;102260.22;5050217;28;20032;-78
2022/04/02 01:17:57;;;;;;;3.83;2.03;;;;;;;15.99;37.90;102258.09;5050118;28;20021;-82
2022/04/02 01:20:24;;;;;;;3.60;2.13;;;;;;;15.94;37.82;102260.13;5050003;28;20080;-79
2022/04/02 01:22:50;;;;;;;3.15;2.03;;;;;;;15.94;38.03;102252.69;5050037;28;20029;-79
2022/04/02 01:25:16;;;;;;;4.93;1.92;;;;;;;15.82;38.00;102252.44;5050018;28;20538;-80
2022/04/02 01:27:44;;;;;;;3.08;2.00;;;;;;;15.80;38.20;102254.69;5050047;28;20104;-78
2022/04/02 01:30:10;;;;;;;3.30;2.17;;;;;;;15.75;38.00;102247.34;5049885;28;20181;-78
2022/04/02 01:32:36;;;;;;;3.17;2.03;;;;;;;15.73;38.20;102244.09;5049749;28;20111;-78
2022/04/02 01:35:01;;;;;;;3.13;1.77;;;;;;;15.66;38.41;102246.47;5049872;28;20053;-78
2022/04/02 01:37:27;;;;;;;4.45;2.22;;;;;;;15.64;38.57;102234.09;5049602;28;20049;-80
2022/04/02 01:39:53;;;;;;;4.78;1.92;;;;;;;15.60;38.43;102236.66;5050074;28;20025;-78
2022/04/02 01:42:24;;;;;;;4.40;1.85;;;;;;;15.62;38.36;102231.66;5048294;28;20048;-78
2022/04/02 01:44:51;;;;;;;3.63;1.90;;;;;;;15.61;38.48;102229.19;5049749;28;20077;-79
2022/04/02 01:47:21;;;;;;;3.70;1.67;;;;;;;15.58;38.46;102229.84;5048552;28;20431;-79
2022/04/02 01:49:47;;;;;;;4.63;2.13;;;;;;;15.59;38.28;102234.22;5049806;28;20032;-85
2022/04/02 01:52:18;;;;;;;3.88;1.90;;;;;;;15.60;38.18;102222.88;5048560;28;20028;-79
2022/04/02 01:54:44;;;;;;;4.82;2.47;;;;;;;15.62;38.63;102230.84;5049677;28;20025;-80
2022/04/02 01:57:10;;;;;;;3.88;1.88;;;;;;;15.65;38.52;102222.81;5049590;28;20029;-80
2022/04/02 01:59:38;;;;;;;2.05;1.60;;;;;;;15.61;38.48;102224.53;5049572;28;20379;-83
2022/04/02 02:02:04;;;;;;;3.22;1.95;;;;;;;15.77;38.32;102222.22;5049604;28;20025;-78
2022/04/02 02:04:31;;;;;;;3.58;1.95;;;;;;;15.87;38.11;102230.28;5049521;28;20089;-78
2022/04/02 02:06:57;;;;;;;3.53;1.70;;;;;;;15.87;38.15;102230.28;5048139;28;20033;-79
2022/04/02 02:09:22;;;;;;;4.35;1.75;;;;;;;15.84;38.35;102230.88;5048490;28;20028;-79
2022/04/02 02:11:48;;;;;;;3.20;1.40;;;;;;;15.90;38.17;102231.59;5049600;28;20025;-81
2022/04/02 02:14:13;;;;;;;4.47;1.83;;;;;;;15.85;38.28;102227.00;5052899;28;20041;-79
2022/04/02 02:16:39;;;;;;;2.97;1.50;;;;;;;15.94;38.00;102225.09;5052946;28;20090;-79
2022/04/02 02:19:04;;;;;;;2.88;1.90;;;;;;;15.96;38.05;102222.06;5051689;28;20021;-79
2022/04/02 02:21:30;;;;;;;6.38;1.60;;;;;;;15.99;38.28;102226.94;5052852;28;20086;-79
2022/04/02 02:23:56;;;;;;;1.58;1.27;;;;;;;15.97;37.99;102221.75;5052780;28;20029;-79
2022/04/02 02:26:23;;;;;;;1.80;1.10;;;;;;;15.96;38.08;102222.88;5052766;28;20028;-83
2022/04/02 02:28:48;;;;;;;2.42;1.17;;;;;;;16.01;38.15;102222.72;5052708;28;20025;-79
2022/04/02 02:31:14;;;;;;;3.10;1.20;;;;;;;16.01;38.01;102217.22;5052663;28;20140;-79
2022/04/02 02:36:25;;;;;;;2.25;1.40;;;;;;;15.91;38.11;102216.66;5053012;28;20506;-79
2022/04/02 02:38:51;;;;;;;1.50;1.13;;;;;;;15.86;38.20;102214.03;5052604;28;20017;-79
2022/04/02 02:41:17;;;;;;;3.33;1.30;;;;;;;15.84;38.44;102221.81;5051262;28;20025;-80
2022/04/02 02:43:42;;;;;;;4.45;1.67;;;;;;;15.87;38.58;102213.75;5052556;28;20032;-80
2022/04/02 02:46:08;;;;;;;2.08;1.52;;;;;;;15.81;38.25;102214.97;5052448;28;20029;-80
2022/04/02 02:48:34;;;;;;;1.50;1.10;;;;;;;15.83;38.36;102212.72;5052501;28;20147;-80
2022/04/02 02:51:00;;;;;;;2.70;1.30;;;;;;;15.83;38.36;102215.47;5052609;28;20032;-79
2022/04/02 02:53:26;;;;;;;2.25;1.30;;;;;;;15.85;38.39;102217.91;5052290;28;20033;-79
2022/04/02 02:55:51;;;;;;;4.50;1.38;;;;;;;15.85;38.32;102215.97;5052419;28;20021;-79
2022/04/02 02:58:17;;;;;;;2.78;1.63;;;;;;;15.86;38.22;102214.84;5052296;28;20030;-79
2022/04/02 03:00:43;;;;;;;4.07;1.80;;;;;;;15.85;38.28;102223.44;5052328;28;20514;-84
2022/04/02 03:03:09;;;;;;;2.25;1.90;;;;;;;15.88;38.34;102220.88;5052270;28;20483;-79
2022/04/02 03:05:35;;;;;;;2.38;1.35;;;;;;;15.90;38.16;102213.09;5052275;28;20077;-79
2022/04/02 03:08:02;;;;;;;2.60;1.80;;;;;;;15.89;38.22;102217.00;5052293;28;20108;-80
2022/04/02 03:10:27;;;;;;;3.72;1.60;;;;;;;15.82;38.31;102213.84;5052197;28;20526;-86
2022/04/02 03:12:57;;;;;;;3.67;1.40;;;;;;;15.79;38.47;102211.69;5052100;28;20052;-79
2022/04/02 03:15:23;;;;;;;2.50;1.70;;;;;;;15.80;38.55;102216.13;5052151;28;20471;-85
2022/04/02 03:17:49;;;;;;;3.75;1.73;;;;;;;15.85;38.49;102207.69;5052015;28;20029;-79
2022/04/02 03:20:17;;;;;;;4.78;1.50;;;;;;;15.88;38.16;102206.28;5051972;28;20074;-84
2022/04/02 03:22:45;;;;;;;5.38;1.40;;;;;;;15.89;38.36;102202.41;5052052;28;20051;-80
2022/04/02 03:25:14;;;;;;;2.38;1.20;;;;;;;15.88;38.29;102196.06;5050619;28;20061;-80
2022/04/02 03:27:41;;;;;;;1.58;1.08;;;;;;;15.84;38.39;102185.97;5051975;28;20061;-80
2022/04/02 03:30:11;;;;;;;2.85;0.90;;;;;;;15.73;38.73;102188.19;5051961;28;20022;-80
2022/04/02 03:32:38;;;;;;;0.70;0.63;;;;;;;15.69;38.75;102178.88;5051748;28;20115;-81
2022/04/02 03:35:05;;;;;;;4.72;1.25;;;;;;;15.65;38.71;102178.72;5051863;28;20031;-85
2022/04/02 03:37:31;;;;;;;1.35;0.85;;;;;;;15.64;38.58;102184.50;5051768;28;20029;-81
2022/04/02 03:39:57;;;;;;;3.38;1.10;;;;;;;15.55;38.94;102181.66;5051821;28;20029;-84
2022/04/02 03:42:23;;;;;;;2.90;0.93;;;;;;;15.64;38.61;102181.75;5051557;28;20056;-79
2022/04/02 03:44:49;;;;;;;1.48;0.77;;;;;;;15.67;38.66;102175.66;5051725;28;20025;-80
2022/04/02 03:47:15;;;;;;;1.92;1.13;;;;;;;15.73;38.64;102177.16;5051664;28;20021;-79
2022/04/02 03:49:47;;;;;;;1.73;0.70;;;;;;;15.78;38.47;102179.75;5048241;28;20540;-80
2022/04/02 03:52:13;;;;;;;1.77;0.68;;;;;;;15.81;38.46;102176.41;5051451;28;20029;-79
2022/04/02 03:54:39;;;;;;;0.93;0.70;;;;;;;15.66;38.59;102171.25;5051352;28;20119;-79
2022/04/02 03:57:06;;;;;;;1.42;1.00;;;;;;;15.66;38.84;102177.59;5051457;28;20104;-79
2022/04/02 03:59:33;;;;;;;3.28;0.75;;;;;;;15.42;39.23;102175.09;5051413;28;20513;-79
2022/04/02 04:01:59;;;;;;;0.82;0.60;;;;;;;15.18;40.05;102169.00;5051334;28;20053;-80
2022/04/02 04:04:25;;;;;;;1.45;0.73;;;;;;;15.64;38.99;102170.75;5051301;28;20025;-80
2022/04/02 04:06:52;;;;;;;1.75;0.80;;;;;;;15.63;38.93;102174.63;5050052;28;20025;-81
2022/04/02 04:09:19;;;;;;;1.42;1.00;;;;;;;15.59;39.21;102170.84;5051371;28;20025;-80
2022/04/02 04:11:44;;;;;;;1.95;1.00;;;;;;;15.55;39.31;102167.88;5051292;28;20021;-87
2022/04/02 04:14:10;;;;;;;1.80;0.88;;;;;;;15.61;39.14;102174.09;5051160;28;20417;-80
2022/04/02 04:16:36;;;;;;;1.58;0.80;;;;;;;15.59;39.28;102170.84;5051314;28;20432;-80
2022/04/02 04:19:02;;;;;;;1.05;0.77;;;;;;;15.65;39.24;102173.22;5051183;28;20036;-81
2022/04/02 04:21:28;;;;;;;1.33;0.80;;;;;;;15.73;39.21;102177.16;5051103;28;20025;-80
2022/04/02 04:23:57;;;;;;;2.92;1.45;;;;;;;15.66;39.27;102176.78;5050889;28;20073;-80
2022/04/02 04:26:22;;;;;;;2.63;1.10;;;;;;;15.72;39.10;102173.59;5051064;28;20025;-85
2022/04/02 04:28:48;;;;;;;2.10;1.00;;;;;;;15.81;39.03;102173.66;5050984;28;20502;-80
2022/04/02 04:31:18;;;;;;;2.30;1.23;;;;;;;15.85;38.77;102168.31;5050837;28;20413;-80
2022/04/02 04:33:47;;;;;;;2.45;1.05;;;;;;;15.81;39.03;102174.47;5050887;28;20036;-86
2022/04/02 04:36:13;;;;;;;3.72;1.08;;;;;;;15.92;39.03;102163.97;5050303;28;20040;-80
2022/04/02 04:38:38;;;;;;;1.95;0.98;;;;;;;15.89;38.86;102170.13;5050873;28;20044;-81
2022/04/02 04:41:04;;;;;;;0.93;0.73;;;;;;;15.80;39.21;102174.78;5050951;28;20086;-80
2022/04/02 04:43:31;;;;;;;2.22;0.93;;;;;;;15.89;38.98;102169.31;5050509;28;20148;-81
2022/04/02 04:45:57;;;;;;;1.42;0.88;;;;;;;15.94;39.08;102166.41;5049457;28;20021;-80
2022/04/02 04:48:23;;;;;;;1.52;0.80;;;;;;;15.91;39.34;102172.56;5050719;28;20479;-85
2022/04/02 04:50:49;;;;;;;2.33;0.73;;;;;;;15.89;39.18;102170.13;5050514;28;20082;-81
2022/04/02 04:53:16;;;;;;;1.60;1.00;;;;;;;15.91;39.18;102176.13;5050372;28;20562;-80
2022/04/02 04:55:41;;;;;;;1.63;0.95;;;;;;;15.87;39.26;102177.91;5050582;28;20025;-79
2022/04/02 04:58:07;;;;;;;2.83;1.10;;;;;;;15.93;39.33;102184.91;5050584;28;20032;-80
2022/04/02 05:00:33;;;;;;;1.70;1.00;;;;;;;15.89;39.49;102185.84;5050501;28;20108;-80
2022/04/02 05:03:02;;;;;;;3.00;1.17;;;;;;;15.92;39.51;102190.72;5050396;28;20029;-81
2022/04/02 05:05:31;;;;;;;1.70;0.90;;;;;;;15.87;39.49;102191.69;5048999;28;20490;-86
2022/04/02 05:07:58;;;;;;;1.10;0.80;;;;;;;16.00;39.22;102192.72;5049121;28;20489;-84
2022/04/02 05:10:24;;;;;;;1.23;1.00;;;;;;;16.06;39.22;102195.03;5050401;28;20021;-80
2022/04/02 05:12:50;;;;;;;5.38;2.17;;;;;;;15.97;39.25;102188.66;5050195;28;20344;-80
2022/04/02 05:15:15;;;;;;;1.42;0.93;;;;;;;16.02;39.19;102185.78;5050293;28;20028;-79
2022/04/02 05:17:42;;;;;;;0.98;0.80;;;;;;;16.01;39.24;102186.88;5050204;28;20525;-79
2022/04/02 05:20:11;;;;;;;2.65;0.90;;;;;;;16.10;39.12;102186.97;5048836;28;20464;-83
2022/04/02 05:22:37;;;;;;;3.00;1.15;;;;;;;16.02;39.14;102187.69;5048915;28;20516;-78
2022/04/02 05:25:03;;;;;;;1.23;0.90;;;;;;;15.95;39.41;102185.41;5048865;28;20023;-78
2022/04/02 05:27:29;;;;;;;1.42;1.15;;;;;;;15.88;39.66;102185.03;5049966;28;20025;-78
2022/04/02 05:29:55;;;;;;;3.05;1.13;;;;;;;15.94;39.60;102188.47;5049949;28;20577;-79
2022/04/02 05:32:20;;;;;;;3.08;1.20;;;;;;;15.93;39.52;102193.16;5049988;28;20096;-79
2022/04/02 05:34:46;;;;;;;2.15;1.10;;;;;;;15.88;39.84;102198.81;5049851;28;20035;-84
2022/04/02 05:37:13;;;;;;;5.20;1.10;;;;;;;15.91;39.69;102195.44;5049867;28;20056;-84
2022/04/02 05:39:41;;;;;;;2.20;1.08;;;;;;;15.94;39.70;102202.25;5049748;28;20168;-79
2022/04/02 05:42:07;;;;;;;1.98;1.50;;;;;;;15.94;39.66;102197.53;5049576;28;20090;-80
2022/04/02 05:44:33;;;;;;;1.85;1.08;;;;;;;16.06;39.38;102200.56;5048597;28;20043;-80
2022/04/02 05:46:59;;;;;;;3.00;1.10;;;;;;;16.04;39.86;102194.56;5047463;28;20025;-80
2022/04/02 05:49:24;;;;;;;2.03;1.10;;;;;;;16.05;39.66;102201.69;5048599;28;20060;-84
2022/04/02 05:51:50;;;;;;;4.35;1.33;;;;;;;16.07;39.60;102196.66;5048500;28;20017;-80
2022/04/02 05:54:16;;;;;;;1.73;1.15;;;;;;;16.00;39.76;102201.81;5049727;28;20060;-80
2022/04/02 05:56:42;;;;;;;1.58;1.10;;;;;;;16.13;39.55;102197.34;5049717;28;20025;-79
2022/04/02 05:59:08;;;;;;;3.72;1.50;;;;;;;16.11;39.47;102191.34;5049600;28;20017;-80
2022/04/02 06:01:35;;;;;;;2.67;1.20;;;;;;;16.18;39.48;102200.00;5049782;28;20021;-81
2022/04/02 06:04:00;;;;;;;4.00;2.92;;;;;;;16.10;39.80;102200.75;5049710;28;20028;-79
2022/04/02 06:06:26;;;;;;;2.95;1.73;;;;;;;15.99;40.06;102208.47;5049666;28;20021;-78
2022/04/02 06:08:51;;;;;;;3.30;1.77;;;;;;;16.02;40.01;102207.84;5049462;28;20025;-80
2022/04/02 06:11:17;;;;;;;3.35;1.75;;;;;;;16.06;40.10;102202.50;5048092;28;20051;-80
2022/04/02 06:13:42;;;;;;;3.55;1.50;;;;;;;16.11;39.89;102212.59;5049611;28;20360;-81
2022/04/02 06:16:08;;;;;;;5.20;1.73;;;;;;;16.24;39.67;102209.75;5049798;28;20061;-79
2022/04/02 06:18:35;;;;;;;4.53;1.48;;;;;;;16.29;39.27;102219.84;5048205;28;20502;-80
2022/04/02 06:21:03;;;;;;;3.90;1.80;;;;;;;16.35;39.36;102210.31;5049270;28;20078;-80
2022/04/02 06:23:30;;;;;;;3.75;2.08;;;;;;;16.40;39.31;102209.34;5049297;28;20036;-80
2022/04/02 06:25:55;;;;;;;3.35;2.00;;;;;;;16.39;39.33;102211.28;5049119;28;20155;-80
2022/04/02 06:28:21;;;;;;;4.40;2.58;;;;;;;16.47;39.26;102218.78;5049191;28;20066;-82
2022/04/02 06:30:47;;;;;;;3.88;2.03;;;;;;;16.50;39.00;102212.66;5049179;28;20026;-80
2022/04/02 06:33:12;;;;;;;3.10;1.50;;;;;;;16.57;39.10;102214.97;5049153;28;20033;-80
2022/04/02 06:35:38;;;;;;;5.68;2.35;;;;;;;16.50;39.16;102222.88;5049005;28;20032;-80
2022/04/02 06:38:04;;;;;;;3.05;1.90;;;;;;;16.39;39.15;102227.84;5049120;28;20104;-81
2022/04/02 06:40:29;;;;;;;2.80;1.92;;;;;;;16.16;39.91;102234.50;5049172;28;20029;-81
2022/04/02 06:42:58;;;;;;;5.28;1.67;;;;;;;16.22;39.90;102223.03;5048870;28;20073;-79
2022/04/02 06:45:25;;;;;;;2.63;1.63;;;;;;;16.28;39.82;102232.81;5049000;28;20029;-80
2022/04/02 06:47:51;;;;;;;4.40;1.90;;;;;;;16.08;40.25;102238.84;5048889;28;20690;-84
2022/04/02 06:50:17;;;;;;;2.40;1.45;;;;;;;16.31;39.99;102237.69;5047663;28;20113;-80
2022/04/02 06:52:45;;;;;;;3.05;1.60;;;;;;;16.44;39.52;102244.25;5048933;28;20025;-79
2022/04/02 06:55:12;;;;;;;2.15;1.33;;;;;;;16.14;40.25;102251.38;5047694;28;20497;-80
2022/04/02 06:57:43;;;;;;;1.90;1.40;;;;;;;16.04;40.64;102251.63;5048809;28;20116;-79
2022/04/02 07:00:10;;;;;;;4.22;1.70;;;;;;;16.02;40.92;102257.47;5051001;28;20029;-80
2022/04/02 07:02:35;;;;;;;2.85;1.40;;;;;;;16.06;40.58;102261.22;5052330;28;20093;-85
2022/04/02 07:05:01;;;;;;;2.72;2.00;;;;;;;16.17;40.49;102263.72;5049999;28;20104;-83
2022/04/02 07:07:26;;;;;;;5.90;1.70;;;;;;;16.13;40.38;102262.72;5050240;28;20104;-80
2022/04/02 07:09:52;;;;;;;9.15;1.90;;;;;;;16.04;40.69;102255.22;5052141;28;20021;-82
2022/04/02 07:12:18;;;;;;;2.92;1.73;;;;;;;16.19;40.56;102255.97;5051806;28;20188;-82
2022/04/02 07:14:44;;;;;;;3.40;1.98;;;;;;;15.96;41.14;102260.66;5052067;28;20025;-81
2022/04/02 07:17:09;;;;;;;3.70;1.50;;;;;;;16.09;40.92;102262.53;5025885;28;20108;-80
2022/04/02 07:19:37;;;;;;;2.53;1.10;;;;;;;15.90;41.27;102261.91;5036612;28;20875;-79
2022/04/02 07:22:08;;;;;;;4.13;1.58;;;;;;;15.90;41.38;102262.72;5035822;28;20816;-80
2022/04/02 07:24:34;;;;;;;1.63;1.20;;;;;;;15.99;41.19;102273.81;5022223;28;20021;-81
2022/04/02 07:27:01;;;;;;;1.38;1.10;;;;;;;16.05;40.87;102276.13;5036565;27;20440;-81
2022/04/02 07:29:30;;;;;;;3.63;1.40;;;;;;;16.02;41.23;102270.41;5035772;28;20021;-81
2022/04/02 07:31:56;;;;;;;2.60;1.10;;;;;;;16.05;41.14;102278.88;5025840;28;20028;-86
2022/04/02 07:34:21;;;;;;;6.30;1.40;;;;;;;16.10;41.02;102283.47;5037106;28;20033;-84
2022/04/02 07:37:05;;;;;;;3.72;1.65;;;;;;;16.22;40.76;102282.91;5019079;28;20033;-82
2022/04/02 07:39:43;;;;;;;3.00;1.88;;;;;;;16.27;40.54;102282.78;5017458;28;20033;-83
2022/04/02 07:42:21;;;;;;;3.75;1.30;;;;;;;16.48;40.08;102285.84;5045669;28;20537;-84
2022/04/02 07:45:11;;;;;;;1.65;1.10;;;;;;;15.63;41.61;102290.34;5050338;28;20391;-81
2022/04/02 07:47:45;;;;;;;2.28;1.20;;;;;;;16.06;40.79;102279.69;5051862;28;20112;-85
2022/04/02 07:50:13;;;;;;;3.50;1.33;;;;;;;16.08;40.83;102283.75;5051524;28;20077;-80
2022/04/02 07:52:44;;;;;;;1.40;1.00;;;;;;;15.90;40.99;102290.28;5051394;28;20029;-85
2022/04/02 07:55:11;;;;;;;1.63;1.33;;;;;;;15.90;40.85;102293.03;5051358;28;20486;-81
2022/04/02 07:57:45;;;;;;;2.45;0.95;;;;;;;16.19;40.34;102281.59;5050192;28;20025;-82
2022/04/02 08:00:12;;;;;;;2.10;1.17;;;;;;;16.42;39.87;102282.41;5051409;28;20042;-77
2022/04/02 08:02:42;;;;;;;1.95;1.10;;;;;;;16.33;39.99;102285.09;5051305;28;20032;-83
2022/04/02 08:05:13;;;;;;;2.85;1.40;;;;;;;16.37;39.91;102274.25;5051092;28;20424;-79
2022/04/02 08:07:44;;;;;;;2.30;1.17;;;;;;;16.41;39.89;102280.78;5050061;28;20056;-76
2022/04/02 08:10:13;;;;;;;3.60;1.60;;;;;;;16.53;40.01;102280.16;5048532;27;20612;-76
2022/04/02 08:12:40;;;;;;;3.88;1.75;;;;;;;16.68;39.63;102285.28;5051038;28;20032;-76
2022/04/02 08:15:09;;;;;;;4.45;1.60;;;;;;;16.70;40.03;102288.59;5029301;28;20063;-78
2022/04/02 08:17:40;;;;;;;2.63;1.15;;;;;;;16.61;39.89;102282.97;5034153;28;20531;-77
2022/04/02 08:20:07;;;;;;;4.18;1.55;;;;;;;17.00;39.43;102275.88;5034709;28;20037;-79
2022/04/02 08:22:33;;;;;;;2.47;1.02;;;;;;;17.32;38.70;102287.69;5035055;28;20535;-76
2022/04/02 08:24:59;;;;;;;2.92;1.80;;;;;;;17.10;39.04;102292.16;5034491;28;20032;-76
2022/04/02 08:27:30;;;;;;;1.63;1.00;;;;;;;17.15;38.99;102300.31;5031843;28;20495;-76
2022/04/02 08:30:02;;;;;;;6.47;1.65;;;;;;;17.25;39.13;102303.91;5044497;28;20029;-79
2022/04/02 08:33:03;;;;;;;2.00;1.08;;;;;;;17.26;38.89;102305.53;5039259;28;20065;-86
2022/04/02 08:35:32;;;;;;;2.83;1.08;;;;;;;17.04;38.99;102300.91;5057962;28;20041;-84
2022/04/02 08:38:24;;;;;;;2.13;1.20;;;;;;;17.02;38.76;102308.72;5038725;28;20499;-86
2022/04/02 08:41:14;;;;;;;3.35;1.35;;;;;;;16.78;39.05;102309.91;5030849;28;20127;-85
2022/04/02 08:43:55;;;;;;;2.45;1.17;;;;;;;16.96;38.35;102296.97;5034227;28;20087;-84
2022/04/02 08:46:39;;;;;;;2.38;1.05;;;;;;;17.14;38.14;102304.19;5017691;28;20030;-84
2022/04/02 08:49:41;;;;;;;2.80;1.15;;;;;;;17.04;38.45;102307.25;5032908;28;20036;-85
2022/04/02 08:52:22;;;;;;;4.30;1.08;;;;;;;17.07;38.13;102303.03;5018188;28;20037;-85
2022/04/02 08:55:13;;;;;;;1.00;0.80;;;;;;;17.18;37.90;102307.97;5016542;28;20039;-84
2022/04/02 08:57:50;;;;;;;2.30;0.73;;;;;;;17.37;37.71;102301.34;5050805;28;20104;-84
2022/04/02 09:00:23;;;;;;;3.70;1.02;;;;;;;17.45;37.82;102306.06;5050306;28;20053;-86
2022/04/02 09:02:57;;;;;;;2.95;0.88;;;;;;;17.54;37.58;102308.88;5049165;28;20024;-87
2022/04/02 09:06:01;;;;;;;3.50;0.90;;;;;;;17.63;37.58;102304.97;5049464;28;20029;-84
2022/04/02 09:08:51;;;;;;;2.90;1.35;;;;;;;17.47;37.70;102306.56;5048272;28;20381;-85
2022/04/02 09:11:33;;;;;;;2.00;0.80;;;;;;;17.50;37.41;102296.81;5048490;28;20029;-84
2022/04/02 09:14:27;;;;;;;2.75;0.77;;;;;;;16.85;37.99;102306.66;5048522;28;20074;-87
2022/04/02 09:17:30;;;;;;;1.35;0.68;;;;;;;16.78;38.09;102318.19;5048388;28;20025;-84
2022/04/02 09:20:37;;;;;;;1.25;0.70;;;;;;;16.55;38.55;102313.78;5029963;27;20495;-84
2022/04/02 09:23:07;;;;;;;3.03;1.00;;;;;;;17.10;38.14;102321.75;5029061;28;20067;-86
2022/04/02 09:25:38;;;;;;;3.22;0.85;;;;;;;17.30;37.73;102307.31;5037705;28;20057;-86
2022/04/02 09:28:26;;;;;;;1.23;0.60;;;;;;;17.26;38.17;102306.34;5046378;28;20025;-86
2022/04/02 09:31:06;;;;;;;1.25;0.75;;;;;;;17.01;38.33;102307.91;5048874;28;20033;-86
2022/04/02 09:33:56;;;;;;;3.70;1.48;;;;;;;16.92;38.29;102298.75;5048951;28;20021;-83
2022/04/02 09:36:49;;;;;;;11.57;1.67;;;;;;;17.60;37.85;102304.78;5049398;28;20029;-92
2022/04/02 09:39:31;;;;;;;3.13;1.20;;;;;;;17.71;37.78;102304.19;5050603;28;20024;-84
2022/04/02 09:42:21;;;;;;;5.25;1.02;;;;;;;17.46;37.85;102296.66;5049251;28;20120;-94
2022/04/02 09:44:59;;;;;;;4.90;1.48;;;;;;;17.65;37.08;102316.50;5049421;28;20033;-85
2022/04/02 09:47:46;;;;;;;10.30;2.08;;;;;;;17.46;36.76;102316.00;5048059;28;20029;-87
2022/04/02 09:50:21;;;;;;;4.57;1.25;;;;;;;17.15;37.35;102321.56;5048816;28;20025;-85
2022/04/02 09:52:55;;;;;;;9.05;2.83;;;;;;;17.57;37.00;102317.31;5049414;28;20060;-84
2022/04/02 09:55:28;;;;;;;2.72;0.80;;;;;;;17.89;36.46;102323.56;5049523;28;20467;-87
2022/04/02 09:58:19;;;;;;;29.35;5.40;;;;;;;17.94;36.03;102318.69;5049530;28;20112;-87
2022/04/02 10:01:03;;;;;;;5.45;1.90;;;;;;;17.80;36.31;102314.47;5049012;28;20033;-82
2022/04/02 10:04:02;;;;;;;3.10;1.10;;;;;;;17.79;36.45;102323.91;5048793;28;20029;-86
2022/04/02 10:06:41;;;;;;;6.40;1.50;;;;;;;17.75;36.14;102327.28;5039805;28;20106;-86
2022/04/02 10:09:09;;;;;;;9.32;1.88;;;;;;;17.87;36.01;102325.84;5050001;28;20479;-83
2022/04/02 10:11:40;;;;;;;23.05;4.32;;;;;;;17.86;35.99;102324.22;5048773;28;20032;-83
2022/04/02 10:14:07;;;;;;;3.90;1.30;;;;;;;17.55;36.86;102335.38;5048544;28;20031;-82
2022/04/02 10:16:35;;;;;;;11.88;3.17;;;;;;;17.80;36.43;102331.03;5050162;28;20487;-88
2022/04/02 10:19:06;;;;;;;12.00;3.08;;;;;;;17.75;36.62;102329.25;5047609;28;20060;-82
2022/04/02 10:21:35;;;;;;;8.13;1.50;;;;;;;17.20;36.88;102336.06;5049236;28;20471;-83
2022/04/02 10:24:20;;;;;;;4.70;1.10;;;;;;;17.36;35.79;102335.63;5048806;28;20028;-89
2022/04/02 10:26:50;;;;;;;2.25;1.10;;;;;;;17.84;35.97;102326.50;5050035;28;20471;-89
2022/04/02 10:29:22;;;;;;;;;;;;;;;17.79;35.54;102329.41;5050400;28;20089;-83
2022/04/02 10:32:19;;;;;;;4.00;1.20;;;;;;;17.60;35.38;102344.31;5048533;28;19920;-89
2022/04/02 10:35:13;;;;;;;5.35;1.48;;;;;;;18.05;34.90;102333.00;5051179;28;20169;-86
2022/04/02 10:38:09;;;;;;;6.78;1.67;;;;;;;18.43;34.20;102321.25;5051648;28;20115;-84
2022/04/02 10:40:56;;;;;;;3.83;1.42;;;;;;;18.53;34.34;102329.25;5036319;28;20029;-84
2022/04/02 10:43:30;;;;;;;7.38;1.33;;;;;;;18.32;34.02;102325.53;5053118;28;20041;-84
2022/04/02 10:45:58;;;;;;;2.20;0.85;;;;;;;18.54;34.21;102322.56;5034546;28;20037;-87
2022/04/02 10:48:45;;;;;;;8.82;1.27;;;;;;;18.74;34.64;102324.66;5020682;28;20174;-83
2022/04/02 10:51:13;;;;;;;1.60;0.75;;;;;;;17.66;36.15;102317.34;5035753;28;20036;-85
2022/04/02 10:53:43;;;;;;;5.32;1.15;;;;;;;17.86;36.35;102313.16;5017292;28;20029;-84
2022/04/02 10:56:26;;;;;;;6.13;1.33;;;;;;;18.56;35.75;102320.25;5035913;28;20089;-85
2022/04/02 10:58:54;;;;;;;1.67;0.60;;;;;;;18.39;36.29;102320.31;5036969;28;20037;-86
2022/04/02 11:01:23;;;;;;;2.45;0.80;;;;;;;17.95;36.89;102319.50;5030863;28;20793;-85
2022/04/02 11:03:55;;;;;;;3.80;0.70;;;;;;;17.70;36.55;102321.09;5032642;28;20023;-84
2022/04/02 11:06:47;;;;;;;1.45;0.70;;;;;;;17.48;35.75;102313.72;5016747;28;20040;-86
2022/04/02 11:09:24;;;;;;;7.07;2.05;;;;;;;18.26;35.32;102311.03;5019172;28;20085;-85
2022/04/02 11:11:52;;;;;;;6.80;1.25;;;;;;;18.12;35.16;102311.19;5019869;28;20088;-85
2022/04/02 11:14:21;;;;;;;7.72;1.73;;;;;;;18.52;34.34;102324.84;5024071;28;20468;-85
2022/04/02 11:16:47;;;;;;;5.07;1.15;;;;;;;17.91;34.17;102312.97;5024476;28;20029;-85
2022/04/02 11:22:18;;;;;;;5.93;1.42;;;;;;;18.70;33.15;102318.16;5032846;28;20503;-84
2022/04/02 11:25:10;;;;;;;12.40;2.10;;;;;;;19.15;33.08;102319.63;5027513;28;20081;-84
2022/04/02 11:27:38;;;;;;;4.78;1.35;;;;;;;18.81;32.95;102324.13;5030961;28;20043;-84
2022/04/02 11:30:09;;;;;;;3.35;1.40;;;;;;;18.85;33.93;102328.69;5018417;28;20440;-88
2022/04/02 11:32:43;;;;;;;1.52;0.98;;;;;;;18.69;34.22;102327.59;5028939;28;20029;-84
2022/04/02 11:35:14;;;;;;;4.53;1.15;;;;;;;18.64;34.17;102333.28;5015131;28;20025;-83
2022/04/02 11:38:14;;;;;;;3.17;1.08;;;;;;;19.60;33.63;102328.19;5018232;28;20033;-83
2022/04/02 11:40:46;;;;;;;;;;;;;;;18.75;34.54;102337.38;5009085;28;20048;-83
2022/04/02 11:43:13;;;;;;;9.10;1.60;;;;;;;18.75;35.14;102342.91;5044156;28;19923;-83
2022/04/02 11:45:40;;;;;;;4.35;1.70;;;;;;;18.27;36.02;102349.44;5050535;28;20430;-83